createdAt,value
2023-03-07T00:00:35.605Z,0
2023-03-07T00:01:36.216Z,0
2023-03-07T00:02:36.858Z,0
2023-03-07T00:03:37.612Z,0
2023-03-07T00:04:38.249Z,0
2023-03-07T00:05:38.890Z,0
2023-03-07T00:06:39.490Z,0
2023-03-07T00:07:40.096Z,0
2023-03-07T00:08:40.703Z,0
2023-03-07T00:09:41.323Z,0
2023-03-07T00:10:41.991Z,0
2023-03-07T00:11:42.602Z,0
2023-03-07T00:12:43.200Z,0
2023-03-07T00:13:43.804Z,0
2023-03-07T00:14:44.411Z,0
2023-03-07T00:15:45.127Z,0
2023-03-07T00:16:45.736Z,0
2023-03-07T00:17:46.420Z,0
2023-03-07T00:18:47.062Z,0
2023-03-07T00:19:47.706Z,0
2023-03-07T00:20:48.308Z,0
2023-03-07T00:21:48.934Z,0
2023-03-07T00:22:49.535Z,0
2023-03-07T00:23:50.136Z,0
2023-03-07T00:24:50.749Z,0
2023-03-07T00:25:51.417Z,0
2023-03-07T00:26:52.885Z,0
2023-03-07T00:27:53.479Z,0
2023-03-07T00:28:54.089Z,0
2023-03-07T00:29:54.683Z,0
2023-03-07T00:30:56.149Z,0
2023-03-07T00:31:57.035Z,0
2023-03-07T00:32:57.736Z,0
2023-03-07T00:33:58.348Z,0
2023-03-07T00:34:58.960Z,0
2023-03-07T00:35:59.704Z,0
2023-03-07T00:37:00.346Z,0
2023-03-07T00:38:00.953Z,0
2023-03-07T00:39:01.645Z,0
2023-03-07T00:40:02.242Z,0
2023-03-07T00:41:02.868Z,0
2023-03-07T00:42:03.458Z,0
2023-03-07T00:43:04.073Z,0
2023-03-07T00:44:04.762Z,0
2023-03-07T00:45:06.269Z,0
2023-03-07T00:46:06.928Z,0
2023-03-07T00:47:07.528Z,0
2023-03-07T00:48:08.138Z,0
2023-03-07T00:49:08.741Z,0
2023-03-07T00:50:09.414Z,0
2023-03-07T00:51:10.020Z,0
2023-03-07T00:52:10.623Z,0
2023-03-07T00:53:11.230Z,0
2023-03-07T00:54:11.831Z,0
2023-03-07T00:55:12.438Z,0
2023-03-07T00:56:13.031Z,0
2023-03-07T00:57:13.880Z,0
2023-03-07T00:58:14.491Z,0
2023-03-07T00:59:15.098Z,0
2023-03-07T01:00:15.716Z,0
2023-03-07T01:01:16.385Z,0
2023-03-07T01:02:16.978Z,0
2023-03-07T01:03:17.585Z,0
2023-03-07T01:04:18.203Z,0
2023-03-07T01:05:18.820Z,0
2023-03-07T01:06:19.494Z,0
2023-03-07T01:07:20.165Z,0
2023-03-07T01:08:20.780Z,0
2023-03-07T01:09:21.457Z,0
2023-03-07T01:10:22.065Z,0
2023-03-07T01:11:22.679Z,0
2023-03-07T01:12:23.348Z,0
2023-03-07T01:13:23.940Z,0
2023-03-07T01:14:24.551Z,0
2023-03-07T01:15:25.144Z,0
2023-03-07T01:16:25.806Z,0
2023-03-07T01:17:26.423Z,0
2023-03-07T01:18:27.025Z,0
2023-03-07T01:19:27.615Z,0
2023-03-07T01:20:28.225Z,0
2023-03-07T01:21:28.835Z,0
2023-03-07T01:22:29.448Z,0
2023-03-07T01:23:30.045Z,0
2023-03-07T01:24:30.655Z,0
2023-03-07T01:25:31.258Z,0
2023-03-07T01:26:31.859Z,0
2023-03-07T01:27:32.471Z,0
2023-03-07T01:28:33.076Z,0
2023-03-07T01:29:33.679Z,0
2023-03-07T01:30:34.280Z,0
2023-03-07T01:31:34.915Z,0
2023-03-07T01:32:35.598Z,0
2023-03-07T01:33:36.190Z,0
2023-03-07T01:34:36.885Z,0
2023-03-07T01:35:37.613Z,0
2023-03-07T01:36:38.202Z,0
2023-03-07T01:37:38.854Z,0
2023-03-07T01:38:39.552Z,0
2023-03-07T01:39:40.160Z,0
2023-03-07T01:40:40.771Z,0
2023-03-07T01:41:41.573Z,0
2023-03-07T01:42:42.276Z,0
2023-03-07T01:43:42.962Z,0
2023-03-07T01:44:43.562Z,0
2023-03-07T01:45:44.226Z,0
2023-03-07T01:46:44.828Z,0
2023-03-07T01:47:45.438Z,0
2023-03-07T01:48:46.147Z,0
2023-03-07T01:49:46.765Z,0
2023-03-07T01:50:47.389Z,0
2023-03-07T01:51:48.007Z,0
2023-03-07T01:52:48.751Z,0
2023-03-07T01:53:49.357Z,0
2023-03-07T01:54:49.956Z,0
2023-03-07T01:55:50.564Z,0
2023-03-07T01:56:51.173Z,0
2023-03-07T01:57:51.783Z,0
2023-03-07T01:58:52.491Z,0
2023-03-07T01:59:53.100Z,0
2023-03-07T02:00:53.729Z,0
2023-03-07T02:01:54.331Z,0
2023-03-07T02:02:54.939Z,0
2023-03-07T02:03:55.591Z,0
2023-03-07T02:04:56.215Z,0
2023-03-07T02:05:56.924Z,0
2023-03-07T02:06:57.624Z,0
2023-03-07T02:07:58.226Z,0
2023-03-07T02:08:58.834Z,0
2023-03-07T02:09:59.440Z,0
2023-03-07T02:11:00.054Z,0
2023-03-07T02:12:00.660Z,0
2023-03-07T02:13:01.263Z,0
2023-03-07T02:14:01.878Z,0
2023-03-07T02:15:02.479Z,0
2023-03-07T02:16:03.096Z,0
2023-03-07T02:17:03.734Z,0
2023-03-07T02:18:04.327Z,0
2023-03-07T02:19:04.938Z,0
2023-03-07T02:20:05.547Z,0
2023-03-07T02:21:06.221Z,0
2023-03-07T02:22:06.828Z,0
2023-03-07T02:23:07.433Z,0
2023-03-07T02:24:08.032Z,0
2023-03-07T02:25:08.635Z,0
2023-03-07T02:26:09.235Z,0
2023-03-07T02:27:09.844Z,0
2023-03-07T02:28:10.452Z,0
2023-03-07T02:29:11.067Z,0
2023-03-07T02:30:11.672Z,0
2023-03-07T02:31:12.319Z,0
2023-03-07T02:32:12.957Z,0
2023-03-07T02:33:13.623Z,0
2023-03-07T02:34:14.241Z,0
2023-03-07T02:35:14.846Z,0
2023-03-07T02:36:15.444Z,0
2023-03-07T02:37:16.050Z,0
2023-03-07T02:38:16.725Z,0
2023-03-07T02:39:17.429Z,0
2023-03-07T02:40:18.047Z,0
2023-03-07T02:41:18.649Z,0
2023-03-07T02:42:20.121Z,0
2023-03-07T02:43:20.719Z,0
2023-03-07T02:44:21.324Z,0
2023-03-07T02:45:22.837Z,0
2023-03-07T02:46:23.566Z,0
2023-03-07T02:47:24.193Z,0
2023-03-07T02:48:24.807Z,0
2023-03-07T02:49:25.417Z,0
2023-03-07T02:50:26.020Z,0
2023-03-07T02:51:26.621Z,0
2023-03-07T02:52:27.223Z,0
2023-03-07T02:53:27.826Z,0
2023-03-07T02:54:28.512Z,0
2023-03-07T02:55:29.110Z,0
2023-03-07T02:56:29.713Z,0
2023-03-07T02:57:30.318Z,0
2023-03-07T02:58:30.926Z,0
2023-03-07T02:59:31.539Z,0
2023-03-07T03:00:32.300Z,0
2023-03-07T03:01:33.721Z,0
2023-03-07T03:02:34.314Z,0
2023-03-07T03:03:34.928Z,0
2023-03-07T03:04:35.597Z,0
2023-03-07T03:05:36.360Z,0
2023-03-07T03:06:37.160Z,0
2023-03-07T03:07:37.771Z,0
2023-03-07T03:08:38.384Z,0
2023-03-07T03:09:38.987Z,0
2023-03-07T03:10:39.605Z,0
2023-03-07T03:11:40.225Z,0
2023-03-07T03:12:40.817Z,0
2023-03-07T03:13:41.425Z,0
2023-03-07T03:14:42.827Z,0
2023-03-07T03:15:43.470Z,0
2023-03-07T03:16:44.131Z,0
2023-03-07T03:17:44.732Z,0
2023-03-07T03:18:45.417Z,0
2023-03-07T03:19:46.012Z,0
2023-03-07T03:20:46.625Z,0
2023-03-07T03:21:47.340Z,0
2023-03-07T03:22:47.986Z,0
2023-03-07T03:23:48.593Z,0
2023-03-07T03:24:49.199Z,0
2023-03-07T03:25:49.800Z,0
2023-03-07T03:26:50.461Z,0
2023-03-07T03:27:51.062Z,0
2023-03-07T03:28:51.673Z,0
2023-03-07T03:29:52.283Z,0
2023-03-07T03:30:52.896Z,0
2023-03-07T03:31:53.494Z,0
2023-03-07T03:32:54.094Z,0
2023-03-07T03:33:54.699Z,0
2023-03-07T03:34:55.295Z,0
2023-03-07T03:35:55.921Z,0
2023-03-07T03:36:56.520Z,0
2023-03-07T03:37:57.199Z,0
2023-03-07T03:38:57.799Z,0
2023-03-07T03:39:58.414Z,0
2023-03-07T03:40:59.017Z,0
2023-03-07T03:41:59.628Z,0
2023-03-07T03:43:01.206Z,0
2023-03-07T03:44:01.804Z,0
2023-03-07T03:45:02.416Z,0
2023-03-07T03:46:03.020Z,0
2023-03-07T03:47:03.619Z,0
2023-03-07T03:48:04.320Z,0
2023-03-07T03:49:04.931Z,0
2023-03-07T03:50:05.529Z,0
2023-03-07T03:51:06.136Z,0
2023-03-07T03:52:06.743Z,0
2023-03-07T03:53:07.352Z,0
2023-03-07T03:54:07.968Z,0
2023-03-07T03:55:08.564Z,0
2023-03-07T03:56:09.382Z,0
2023-03-07T03:57:09.982Z,0
2023-03-07T03:58:10.593Z,0
2023-03-07T03:59:11.190Z,0
2023-03-07T04:00:11.790Z,0
2023-03-07T04:01:12.480Z,0
2023-03-07T04:02:13.155Z,0
2023-03-07T04:03:13.792Z,0
2023-03-07T04:04:14.388Z,0
2023-03-07T04:05:14.996Z,0
2023-03-07T04:06:15.698Z,0
2023-03-07T04:07:16.458Z,0
2023-03-07T04:08:17.070Z,0
2023-03-07T04:09:17.771Z,0
2023-03-07T04:10:18.470Z,0
2023-03-07T04:11:19.073Z,0
2023-03-07T04:12:19.674Z,0
2023-03-07T04:13:20.285Z,0
2023-03-07T04:14:20.885Z,0
2023-03-07T04:15:21.504Z,0
2023-03-07T04:16:22.161Z,0
2023-03-07T04:17:22.760Z,0
2023-03-07T04:18:23.359Z,0
2023-03-07T04:19:23.961Z,0
2023-03-07T04:20:24.565Z,0
2023-03-07T04:21:25.224Z,0
2023-03-07T04:22:25.811Z,0
2023-03-07T04:23:26.420Z,0
2023-03-07T04:24:27.018Z,0
2023-03-07T04:25:27.697Z,0
2023-03-07T04:26:28.301Z,0
2023-03-07T04:27:28.899Z,0
2023-03-07T04:28:29.506Z,0
2023-03-07T04:29:30.135Z,0
2023-03-07T04:30:30.745Z,0
2023-03-07T04:31:31.410Z,0
2023-03-07T04:32:32.051Z,0
2023-03-07T04:33:32.664Z,0
2023-03-07T04:34:33.342Z,0
2023-03-07T04:35:34.036Z,0
2023-03-07T04:36:34.676Z,0
2023-03-07T04:37:35.283Z,0
2023-03-07T04:38:35.898Z,0
2023-03-07T04:39:36.514Z,0
2023-03-07T04:40:37.193Z,0
2023-03-07T04:41:37.811Z,0
2023-03-07T04:42:38.411Z,0
2023-03-07T04:43:39.020Z,0
2023-03-07T04:44:39.633Z,0
2023-03-07T04:45:40.250Z,0
2023-03-07T04:46:40.864Z,0
2023-03-07T04:47:41.474Z,0
2023-03-07T04:48:42.125Z,0
2023-03-07T04:49:42.730Z,0
2023-03-07T04:50:43.400Z,0
2023-03-07T04:51:44.276Z,0
2023-03-07T04:52:45.732Z,0
2023-03-07T04:53:46.414Z,0
2023-03-07T04:54:47.011Z,0
2023-03-07T04:55:47.617Z,0
2023-03-07T04:56:48.214Z,0
2023-03-07T04:57:48.814Z,0
2023-03-07T04:58:49.428Z,0
2023-03-07T04:59:50.024Z,0
2023-03-07T05:00:50.644Z,0
2023-03-07T05:01:51.231Z,0
2023-03-07T05:02:51.838Z,0
2023-03-07T05:03:52.448Z,0
2023-03-07T05:04:53.098Z,0
2023-03-07T05:05:53.692Z,0
2023-03-07T05:06:54.408Z,0
2023-03-07T05:07:55.062Z,0
2023-03-07T05:08:55.662Z,0
2023-03-07T05:09:56.272Z,0
2023-03-07T05:10:56.962Z,0
2023-03-07T05:11:57.689Z,0
2023-03-07T05:12:58.300Z,0
2023-03-07T05:13:59.102Z,0
2023-03-07T05:14:59.704Z,0
2023-03-07T05:16:00.364Z,0
2023-03-07T05:17:00.988Z,0
2023-03-07T05:18:01.649Z,0
2023-03-07T05:19:04.374Z,0
2023-03-07T05:20:02.991Z,0
2023-03-07T05:21:03.593Z,0
2023-03-07T05:22:04.191Z,0
2023-03-07T05:23:04.856Z,0
2023-03-07T05:24:05.460Z,0
2023-03-07T05:25:06.091Z,0
2023-03-07T05:26:06.683Z,0
2023-03-07T05:27:07.283Z,0
2023-03-07T05:28:07.884Z,0
2023-03-07T05:29:08.498Z,0
2023-03-07T05:30:09.094Z,0
2023-03-07T05:31:09.768Z,0
2023-03-07T05:32:10.378Z,0
2023-03-07T05:33:10.973Z,0
2023-03-07T05:34:11.580Z,0
2023-03-07T05:35:12.191Z,0
2023-03-07T05:36:12.855Z,0
2023-03-07T05:37:13.465Z,0
2023-03-07T05:38:14.081Z,0
2023-03-07T05:39:14.670Z,0
2023-03-07T05:40:15.277Z,0
2023-03-07T05:41:15.883Z,0
2023-03-07T05:42:16.496Z,0
2023-03-07T05:43:17.090Z,0
2023-03-07T05:44:17.696Z,0
2023-03-07T05:45:18.288Z,0
2023-03-07T05:46:18.940Z,0
2023-03-07T05:47:19.549Z,0
2023-03-07T05:48:20.201Z,0
2023-03-07T05:49:20.810Z,0
2023-03-07T05:50:21.411Z,0
2023-03-07T05:51:22.062Z,0
2023-03-07T05:52:22.664Z,0
2023-03-07T05:53:23.296Z,0
2023-03-07T05:54:23.877Z,0
2023-03-07T05:55:24.486Z,0
2023-03-07T05:56:25.086Z,0
2023-03-07T05:57:25.696Z,0
2023-03-07T05:58:26.306Z,0
2023-03-07T05:59:26.999Z,0
2023-03-07T06:00:27.600Z,0
2023-03-07T06:01:28.208Z,0
2023-03-07T06:02:28.833Z,0
2023-03-07T06:03:29.453Z,0
2023-03-07T06:04:30.073Z,0
2023-03-07T06:05:30.691Z,0
2023-03-07T06:06:31.505Z,0
2023-03-07T06:07:32.111Z,0
2023-03-07T06:08:32.858Z,0
2023-03-07T06:09:33.471Z,0
2023-03-07T06:10:34.069Z,0
2023-03-07T06:11:34.715Z,0
2023-03-07T06:12:35.361Z,0
2023-03-07T06:13:36.021Z,0
2023-03-07T06:14:36.635Z,0
2023-03-07T06:15:37.231Z,0
2023-03-07T06:16:37.840Z,0
2023-03-07T06:17:40.615Z,0
2023-03-07T06:18:40.079Z,0
2023-03-07T06:19:40.712Z,0
2023-03-07T06:20:41.325Z,0
2023-03-07T06:21:41.931Z,0
2023-03-07T06:22:42.537Z,0
2023-03-07T06:23:43.299Z,0
2023-03-07T06:24:43.908Z,0
2023-03-07T06:25:44.512Z,0
2023-03-07T06:26:45.111Z,0
2023-03-07T06:27:45.746Z,0
2023-03-07T06:28:46.345Z,0
2023-03-07T06:29:46.960Z,0
2023-03-07T06:30:47.615Z,0
2023-03-07T06:31:48.331Z,0
2023-03-07T06:32:49.022Z,0
2023-03-07T06:33:49.679Z,0
2023-03-07T06:34:50.359Z,0
2023-03-07T06:35:50.995Z,0
2023-03-07T06:36:51.593Z,0
2023-03-07T06:37:52.201Z,0
2023-03-07T06:38:52.811Z,0
2023-03-07T06:39:53.420Z,0
2023-03-07T06:40:54.029Z,0
2023-03-07T06:41:55.482Z,0
2023-03-07T06:42:56.090Z,0
2023-03-07T06:43:56.700Z,0
2023-03-07T06:44:57.303Z,0
2023-03-07T06:45:57.921Z,0
2023-03-07T06:46:58.810Z,0
2023-03-07T06:47:59.414Z,0
2023-03-07T06:49:00.020Z,0
2023-03-07T06:50:00.616Z,0
2023-03-07T06:51:01.229Z,0
2023-03-07T06:52:01.927Z,0
2023-03-07T06:53:02.523Z,0
2023-03-07T06:54:03.136Z,0
2023-03-07T06:55:03.803Z,0
2023-03-07T06:56:04.413Z,0
2023-03-07T06:57:05.019Z,0
2023-03-07T06:58:05.614Z,0
2023-03-07T06:59:06.215Z,0
2023-03-07T07:00:06.847Z,0
2023-03-07T07:01:07.481Z,0
2023-03-07T07:02:08.158Z,0
2023-03-07T07:03:08.916Z,0
2023-03-07T07:04:09.568Z,0
2023-03-07T07:05:10.176Z,0
2023-03-07T07:06:10.780Z,0
2023-03-07T07:07:11.387Z,0
2023-03-07T07:08:11.985Z,0
2023-03-07T07:09:12.621Z,0
2023-03-07T07:10:13.283Z,0
2023-03-07T07:11:13.889Z,0
2023-03-07T07:12:14.492Z,0
2023-03-07T07:13:15.124Z,0
2023-03-07T07:14:15.712Z,0
2023-03-07T07:15:16.317Z,0
2023-03-07T07:16:17.027Z,0
2023-03-07T07:17:17.691Z,0
2023-03-07T07:18:18.294Z,0
2023-03-07T07:19:18.893Z,0
2023-03-07T07:20:19.503Z,0
2023-03-07T07:21:20.178Z,0
2023-03-07T07:22:21.584Z,0
2023-03-07T07:23:22.190Z,0
2023-03-07T07:24:22.875Z,0
2023-03-07T07:25:23.487Z,0
2023-03-07T07:26:24.170Z,0
2023-03-07T07:27:24.776Z,0
2023-03-07T07:28:25.375Z,0
2023-03-07T07:29:25.977Z,0
2023-03-07T07:30:27.139Z,0
2023-03-07T07:31:27.773Z,0
2023-03-07T07:32:28.588Z,0
2023-03-07T07:33:29.541Z,0
2023-03-07T07:34:30.183Z,0
2023-03-07T07:35:30.824Z,0
2023-03-07T07:36:31.504Z,0
2023-03-07T07:37:32.186Z,0
2023-03-07T07:38:32.845Z,0
2023-03-07T07:39:33.455Z,0
2023-03-07T07:40:34.057Z,0
2023-03-07T07:41:34.728Z,0
2023-03-07T07:42:35.393Z,0
2023-03-07T07:43:35.995Z,0
2023-03-07T07:44:36.669Z,0
2023-03-07T07:45:37.336Z,0
2023-03-07T07:46:37.964Z,4
2023-03-07T07:47:38.574Z,4
2023-03-07T07:48:39.177Z,4
2023-03-07T07:49:39.787Z,4
2023-03-07T07:50:40.395Z,4
2023-03-07T07:51:41.013Z,4
2023-03-07T07:52:41.664Z,4
2023-03-07T07:53:42.279Z,4
2023-03-07T07:54:42.869Z,4
2023-03-07T07:55:43.473Z,4
2023-03-07T07:56:44.083Z,4
2023-03-07T07:57:45.533Z,4
2023-03-07T07:58:46.209Z,4
2023-03-07T07:59:46.819Z,4
2023-03-07T08:00:47.429Z,4
2023-03-07T08:01:48.037Z,4
2023-03-07T08:02:48.714Z,8
2023-03-07T08:03:49.340Z,4
2023-03-07T08:04:49.987Z,4
2023-03-07T08:05:50.661Z,4
2023-03-07T08:06:51.262Z,4
2023-03-07T08:07:51.864Z,8
2023-03-07T08:08:52.531Z,4
2023-03-07T08:09:53.143Z,8
2023-03-07T08:10:53.744Z,8
2023-03-07T08:11:54.424Z,8
2023-03-07T08:12:55.024Z,4
2023-03-07T08:13:55.613Z,4
2023-03-07T08:14:56.226Z,4
2023-03-07T08:15:56.862Z,4
2023-03-07T08:16:57.490Z,8
2023-03-07T08:17:58.106Z,8
2023-03-07T08:18:58.743Z,8
2023-03-07T08:20:01.317Z,8
2023-03-07T08:21:00.956Z,8
2023-03-07T08:22:01.644Z,8
2023-03-07T08:23:02.248Z,8
2023-03-07T08:24:02.854Z,8
2023-03-07T08:25:04.255Z,8
2023-03-07T08:26:06.283Z,8
2023-03-07T08:27:05.530Z,8
2023-03-07T08:28:06.140Z,8
2023-03-07T08:29:06.747Z,8
2023-03-07T08:30:07.360Z,8
2023-03-07T08:31:08.043Z,8
2023-03-07T08:32:10.460Z,8
2023-03-07T08:33:10.265Z,8
2023-03-07T08:34:10.877Z,8
2023-03-07T08:35:11.475Z,8
2023-03-07T08:36:12.095Z,8
2023-03-07T08:37:12.694Z,8
2023-03-07T08:38:14.146Z,4
2023-03-07T08:39:14.798Z,4
2023-03-07T08:40:15.541Z,4
2023-03-07T08:41:16.985Z,4
2023-03-07T08:42:17.633Z,4
2023-03-07T08:43:18.260Z,4
2023-03-07T08:44:18.914Z,4
2023-03-07T08:45:20.833Z,8
2023-03-07T08:46:22.000Z,8
2023-03-07T08:47:22.599Z,4
2023-03-07T08:48:23.206Z,8
2023-03-07T08:49:23.805Z,8
2023-03-07T08:50:24.406Z,4
2023-03-07T08:51:25.023Z,4
2023-03-07T08:52:25.626Z,4
2023-03-07T08:53:26.230Z,8
2023-03-07T08:54:26.843Z,8
2023-03-07T08:55:27.579Z,8
2023-03-07T08:56:28.181Z,8
2023-03-07T08:57:28.788Z,8
2023-03-07T08:58:29.388Z,4
2023-03-07T08:59:29.998Z,4
2023-03-07T09:00:30.597Z,4
2023-03-07T09:01:32.095Z,4
2023-03-07T09:02:32.721Z,4
2023-03-07T09:03:33.365Z,4
2023-03-07T09:04:34.038Z,4
2023-03-07T09:05:34.650Z,4
2023-03-07T09:06:35.257Z,4
2023-03-07T09:07:35.860Z,4
2023-03-07T09:08:36.555Z,4
2023-03-07T09:09:37.152Z,4
2023-03-07T09:10:37.763Z,4
2023-03-07T09:11:38.438Z,4
2023-03-07T09:12:39.061Z,4
2023-03-07T09:13:50.970Z,4
2023-03-07T09:14:40.334Z,4
2023-03-07T09:15:40.970Z,4
2023-03-07T09:16:41.671Z,4
2023-03-07T09:17:42.431Z,4
2023-03-07T09:18:43.025Z,4
2023-03-07T09:19:43.636Z,4
2023-03-07T09:20:44.366Z,8
2023-03-07T09:21:44.995Z,8
2023-03-07T09:22:45.666Z,4
2023-03-07T09:23:46.277Z,4
2023-03-07T09:24:46.888Z,4
2023-03-07T09:25:47.603Z,4
2023-03-07T09:26:48.259Z,4
2023-03-07T09:27:50.992Z,4
2023-03-07T09:28:50.470Z,4
2023-03-07T09:29:51.074Z,4
2023-03-07T09:30:52.479Z,4
2023-03-07T09:31:53.201Z,4
2023-03-07T09:32:53.902Z,8
2023-03-07T09:33:54.504Z,4
2023-03-07T09:34:55.103Z,8
2023-03-07T09:35:55.732Z,8
2023-03-07T09:36:56.319Z,8
2023-03-07T09:37:56.941Z,12
2023-03-07T09:38:58.480Z,8
2023-03-07T09:39:59.074Z,12
2023-03-07T09:40:59.743Z,8
2023-03-07T09:42:00.439Z,12
2023-03-07T09:43:01.882Z,12
2023-03-07T09:44:02.611Z,12
2023-03-07T09:45:03.221Z,8
2023-03-07T09:46:03.856Z,8
2023-03-07T09:47:04.452Z,12
2023-03-07T09:48:05.142Z,8
2023-03-07T09:49:05.790Z,8
2023-03-07T09:50:06.393Z,12
2023-03-07T09:51:11.699Z,12
2023-03-07T09:52:10.274Z,8
2023-03-07T09:53:10.198Z,16
2023-03-07T09:54:10.805Z,12
2023-03-07T09:55:11.407Z,16
2023-03-07T09:56:12.017Z,20
2023-03-07T09:57:12.626Z,16
2023-03-07T09:58:14.038Z,12
2023-03-07T09:59:22.847Z,20
2023-03-07T10:00:17.225Z,20
2023-03-07T10:01:17.836Z,16
2023-03-07T10:02:18.487Z,20
2023-03-07T10:03:19.143Z,20
2023-03-07T10:04:19.828Z,20
2023-03-07T10:05:20.434Z,20
2023-03-07T10:06:21.040Z,12
2023-03-07T10:07:21.650Z,20
2023-03-07T10:08:23.104Z,20
2023-03-07T10:09:23.755Z,24
2023-03-07T10:10:24.360Z,20
2023-03-07T10:11:25.105Z,20
2023-03-07T10:12:25.655Z,20
2023-03-07T10:13:26.251Z,20
2023-03-07T10:14:26.883Z,16
2023-03-07T10:15:27.509Z,20
2023-03-07T10:16:28.145Z,20
2023-03-07T10:17:29.024Z,20
2023-03-07T10:18:29.656Z,16
2023-03-07T10:19:30.361Z,12
2023-03-07T10:20:31.113Z,16
2023-03-07T10:21:31.777Z,8
2023-03-07T10:22:32.422Z,12
2023-03-07T10:23:33.051Z,12
2023-03-07T10:24:33.652Z,4
2023-03-07T10:25:34.248Z,16
2023-03-07T10:26:34.848Z,12
2023-03-07T10:27:35.451Z,8
2023-03-07T10:28:36.109Z,16
2023-03-07T10:29:36.716Z,16
2023-03-07T10:30:37.320Z,4
2023-03-07T10:31:38.045Z,20
2023-03-07T10:32:38.808Z,20
2023-03-07T10:33:40.297Z,16
2023-03-07T10:34:40.096Z,12
2023-03-07T10:35:40.725Z,8
2023-03-07T10:36:41.361Z,12
2023-03-07T10:37:41.967Z,8
2023-03-07T10:38:42.575Z,8
2023-03-07T10:39:43.194Z,8
2023-03-07T10:40:44.597Z,8
2023-03-07T10:41:45.211Z,8
2023-03-07T10:42:45.808Z,8
2023-03-07T10:43:46.419Z,12
2023-03-07T10:44:47.087Z,8
2023-03-07T10:45:47.828Z,8
2023-03-07T10:46:55.662Z,8
2023-03-07T10:47:50.141Z,16
2023-03-07T10:48:50.741Z,24
2023-03-07T10:49:51.411Z,12
2023-03-07T10:50:52.036Z,20
2023-03-07T10:51:53.617Z,24
2023-03-07T10:52:54.224Z,20
2023-03-07T10:53:54.894Z,20
2023-03-07T10:54:55.507Z,16
2023-03-07T10:55:56.105Z,20
2023-03-07T10:56:56.709Z,32
2023-03-07T10:57:57.599Z,12
2023-03-07T10:58:58.218Z,20
2023-03-07T10:59:58.827Z,28
2023-03-07T11:00:59.486Z,24
2023-03-07T11:02:00.136Z,32
2023-03-07T11:03:00.783Z,24
2023-03-07T11:04:01.429Z,32
2023-03-07T11:05:02.125Z,32
2023-03-07T11:06:02.751Z,24
2023-03-07T11:07:03.366Z,36
2023-03-07T11:08:04.830Z,12
2023-03-07T11:09:05.441Z,24
2023-03-07T11:10:06.053Z,40
2023-03-07T11:11:06.657Z,12
2023-03-07T11:12:07.271Z,40
2023-03-07T11:13:07.945Z,40
2023-03-07T11:14:08.558Z,40
2023-03-07T11:15:09.178Z,40
2023-03-07T11:16:12.059Z,40
2023-03-07T11:17:12.076Z,40
2023-03-07T11:18:12.677Z,40
2023-03-07T11:19:13.278Z,40
2023-03-07T11:20:13.889Z,40
2023-03-07T11:21:14.499Z,44
2023-03-07T11:22:15.107Z,40
2023-03-07T11:23:15.719Z,44
2023-03-07T11:24:16.377Z,40
2023-03-07T11:25:16.980Z,44
2023-03-07T11:26:17.595Z,12
2023-03-07T11:27:18.188Z,28
2023-03-07T11:28:18.861Z,44
2023-03-07T11:29:19.471Z,40
2023-03-07T11:30:20.097Z,40
2023-03-07T11:31:20.787Z,36
2023-03-07T11:32:22.289Z,16
2023-03-07T11:33:22.883Z,40
2023-03-07T11:34:23.500Z,40
2023-03-07T11:35:24.179Z,40
2023-03-07T11:36:24.863Z,40
2023-03-07T11:37:25.474Z,36
2023-03-07T11:38:26.085Z,36
2023-03-07T11:39:26.695Z,40
2023-03-07T11:40:27.296Z,36
2023-03-07T11:41:27.897Z,32
2023-03-07T11:42:28.497Z,32
2023-03-07T11:43:29.244Z,32
2023-03-07T11:44:29.926Z,32
2023-03-07T11:45:30.517Z,28
2023-03-07T11:46:31.329Z,28
2023-03-07T11:47:31.806Z,28
2023-03-07T11:48:32.454Z,28
2023-03-07T11:49:33.069Z,24
2023-03-07T11:50:33.696Z,24
2023-03-07T11:51:34.305Z,28
2023-03-07T11:52:34.956Z,28
2023-03-07T11:53:35.562Z,28
2023-03-07T11:54:36.162Z,28
2023-03-07T11:55:36.772Z,28
2023-03-07T11:56:37.433Z,24
2023-03-07T11:57:38.042Z,28
2023-03-07T11:58:38.716Z,16
2023-03-07T11:59:39.313Z,28
2023-03-07T12:00:39.974Z,28
2023-03-07T12:01:40.593Z,24
2023-03-07T12:02:41.218Z,28
2023-03-07T12:03:41.821Z,20
2023-03-07T12:04:42.431Z,20
2023-03-07T12:05:43.102Z,24
2023-03-07T12:06:43.730Z,20
2023-03-07T12:07:44.335Z,20
2023-03-07T12:08:44.938Z,24
2023-03-07T12:09:45.537Z,24
2023-03-07T12:10:46.195Z,24
2023-03-07T12:11:46.796Z,20
2023-03-07T12:12:47.450Z,16
2023-03-07T12:13:48.083Z,24
2023-03-07T12:14:48.703Z,20
2023-03-07T12:15:49.335Z,28
2023-03-07T12:16:49.976Z,20
2023-03-07T12:17:50.601Z,16
2023-03-07T12:18:51.189Z,16
2023-03-07T12:19:51.801Z,24
2023-03-07T12:20:53.392Z,20
2023-03-07T12:21:53.996Z,24
2023-03-07T12:22:54.599Z,24
2023-03-07T12:23:55.205Z,24
2023-03-07T12:24:55.825Z,28
2023-03-07T12:25:56.414Z,28
2023-03-07T12:26:57.019Z,24
2023-03-07T12:27:57.624Z,24
2023-03-07T12:28:58.228Z,28
2023-03-07T12:29:58.899Z,24
2023-03-07T12:30:59.561Z,24
2023-03-07T12:32:00.271Z,24
2023-03-07T12:33:01.154Z,24
2023-03-07T12:34:02.695Z,24
2023-03-07T12:35:03.535Z,24
2023-03-07T12:36:04.306Z,20
2023-03-07T12:37:04.989Z,16
2023-03-07T12:38:05.705Z,24
2023-03-07T12:39:06.373Z,20
2023-03-07T12:40:06.984Z,20
2023-03-07T12:41:07.612Z,16
2023-03-07T12:42:08.283Z,20
2023-03-07T12:43:08.899Z,16
2023-03-07T12:44:10.323Z,20
2023-03-07T12:45:10.918Z,20
2023-03-07T12:46:11.665Z,24
2023-03-07T12:47:12.257Z,16
2023-03-07T12:48:12.942Z,12
2023-03-07T12:49:13.548Z,24
2023-03-07T12:50:14.141Z,24
2023-03-07T12:51:14.751Z,20
2023-03-07T12:52:15.356Z,24
2023-03-07T12:53:15.954Z,20
2023-03-07T12:54:16.564Z,20
2023-03-07T12:55:17.172Z,24
2023-03-07T12:56:17.788Z,24
2023-03-07T12:57:18.385Z,28
2023-03-07T12:58:19.057Z,24
2023-03-07T12:59:19.740Z,32
2023-03-07T13:00:20.351Z,24
2023-03-07T13:01:21.007Z,24
2023-03-07T13:02:22.410Z,32
2023-03-07T13:03:23.029Z,32
2023-03-07T13:04:23.910Z,32
2023-03-07T13:05:24.537Z,28
2023-03-07T13:06:25.153Z,24
2023-03-07T13:07:25.762Z,28
2023-03-07T13:08:26.431Z,32
2023-03-07T13:09:27.044Z,24
2023-03-07T13:10:27.640Z,20
2023-03-07T13:11:28.244Z,24
2023-03-07T13:12:28.859Z,24
2023-03-07T13:13:29.460Z,20
2023-03-07T13:14:30.068Z,16
2023-03-07T13:15:30.674Z,20
2023-03-07T13:16:31.321Z,20
2023-03-07T13:17:31.935Z,36
2023-03-07T13:18:32.539Z,24
2023-03-07T13:19:33.150Z,20
2023-03-07T13:20:33.761Z,16
2023-03-07T13:21:34.367Z,16
2023-03-07T13:22:34.978Z,16
2023-03-07T13:23:35.717Z,16
2023-03-07T13:24:36.389Z,20
2023-03-07T13:25:36.999Z,12
2023-03-07T13:26:37.599Z,16
2023-03-07T13:27:38.208Z,16
2023-03-07T13:28:38.841Z,12
2023-03-07T13:29:39.506Z,16
2023-03-07T13:30:40.152Z,16
2023-03-07T13:31:40.753Z,16
2023-03-07T13:32:41.388Z,16
2023-03-07T13:33:42.005Z,16
2023-03-07T13:34:42.677Z,12
2023-03-07T13:35:44.156Z,16
2023-03-07T13:36:44.758Z,12
2023-03-07T13:37:45.402Z,12
2023-03-07T13:38:46.106Z,12
2023-03-07T13:39:46.706Z,12
2023-03-07T13:40:47.360Z,16
2023-03-07T13:41:48.142Z,16
2023-03-07T13:42:48.746Z,12
2023-03-07T13:43:49.560Z,16
2023-03-07T13:44:50.123Z,12
2023-03-07T13:45:50.775Z,12
2023-03-07T13:46:51.376Z,12
2023-03-07T13:47:51.977Z,12
2023-03-07T13:48:52.573Z,12
2023-03-07T13:49:53.179Z,12
2023-03-07T13:50:53.785Z,12
2023-03-07T13:51:54.391Z,12
2023-03-07T13:52:54.986Z,12
2023-03-07T13:53:55.589Z,12
2023-03-07T13:54:56.195Z,12
2023-03-07T13:55:56.793Z,12
2023-03-07T13:56:57.398Z,12
2023-03-07T13:57:58.002Z,16
2023-03-07T13:58:58.682Z,12
2023-03-07T13:59:59.342Z,12
2023-03-07T14:01:00.022Z,12
2023-03-07T14:02:00.610Z,16
2023-03-07T14:03:01.296Z,12
2023-03-07T14:04:01.918Z,12
2023-03-07T14:05:02.504Z,12
2023-03-07T14:06:03.101Z,12
2023-03-07T14:07:03.750Z,8
2023-03-07T14:08:04.482Z,8
2023-03-07T14:09:05.184Z,12
2023-03-07T14:10:19.556Z,12
2023-03-07T14:11:07.437Z,12
2023-03-07T14:12:08.034Z,12
2023-03-07T14:13:08.633Z,8
2023-03-07T14:14:09.238Z,12
2023-03-07T14:15:10.638Z,12
2023-03-07T14:16:11.258Z,8
2023-03-07T14:17:11.879Z,12
2023-03-07T14:18:12.483Z,12
2023-03-07T14:19:13.097Z,12
2023-03-07T14:20:13.694Z,12
2023-03-07T14:21:14.287Z,8
2023-03-07T14:22:14.883Z,8
2023-03-07T14:23:16.292Z,8
2023-03-07T14:24:16.882Z,8
2023-03-07T14:25:17.479Z,8
2023-03-07T14:26:18.084Z,12
2023-03-07T14:27:18.691Z,8
2023-03-07T14:28:19.287Z,12
2023-03-07T14:29:19.879Z,8
2023-03-07T14:30:20.480Z,8
2023-03-07T14:31:21.204Z,8
2023-03-07T14:32:22.683Z,8
2023-03-07T14:33:23.316Z,8
2023-03-07T14:34:23.905Z,8
2023-03-07T14:35:24.577Z,8
2023-03-07T14:36:25.183Z,8
2023-03-07T14:37:25.784Z,8
2023-03-07T14:38:26.458Z,8
2023-03-07T14:39:27.050Z,8
2023-03-07T14:40:27.720Z,8
2023-03-07T14:41:28.316Z,12
2023-03-07T14:42:28.942Z,8
2023-03-07T14:43:29.576Z,8
2023-03-07T14:44:31.117Z,8
2023-03-07T14:45:31.750Z,8
2023-03-07T14:46:32.494Z,12
2023-03-07T14:47:33.127Z,8